Time;durP1;ratioP1;P1;durP2;ratioP2;P2;SDS_P1;SDS_P2;PMS_P1;PMS_P2;Temp;Humidity;BMP_temperature;BMP_pressure;BME280_temperature;BME280_humidity;BME280_pressure;Samples;Min_cycle;Max_cycle;Signal;HPM_P1;HPM_P2
2021/09/09 00:01:37;;;;;;;11.30;7.95;;;;;;;14.38;100.00;100549.84;5202303;28;20123;-77
2021/09/09 00:04:07;;;;;;;11.07;8.02;;;;;;;14.32;100.00;100548.41;5197166;28;20044;-77
2021/09/09 00:06:37;;;;;;;10.32;7.35;;;;;;;14.40;100.00;100537.50;5202053;28;20021;-77
2021/09/09 00:09:08;;;;;;;12.65;7.95;;;;;;;14.41;100.00;100549.72;5202545;28;20116;-77
2021/09/09 00:11:38;;;;;;;13.55;8.52;;;;;;;14.45;100.00;100540.75;5202492;28;20041;-77
2021/09/09 00:14:08;;;;;;;11.55;8.10;;;;;;;14.37;100.00;100535.00;5201415;28;20040;-77
2021/09/09 00:16:40;;;;;;;11.73;8.07;;;;;;;14.47;100.00;100534.47;5201921;28;20033;-77
2021/09/09 00:19:11;;;;;;;11.77;7.78;;;;;;;14.52;100.00;100534.22;5202504;28;20049;-77
2021/09/09 00:21:41;;;;;;;13.63;8.20;;;;;;;14.54;100.00;100529.72;5201186;28;20037;-77
2021/09/09 00:24:11;;;;;;;15.55;8.93;;;;;;;14.63;100.00;100524.81;5201381;28;20281;-77
2021/09/09 00:26:42;;;;;;;11.37;7.67;;;;;;;14.68;100.00;100535.13;5201783;28;20037;-77
2021/09/09 00:29:12;;;;;;;11.82;7.82;;;;;;;14.68;100.00;100529.84;5202219;28;20299;-77
2021/09/09 00:31:42;;;;;;;13.30;8.32;;;;;;;14.69;100.00;100528.91;5201544;28;20049;-77
2021/09/09 00:34:13;;;;;;;10.88;7.88;;;;;;;14.79;100.00;100520.44;5201409;28;20033;-77
2021/09/09 00:36:43;;;;;;;13.60;8.02;;;;;;;14.71;100.00;100527.91;5201672;28;20482;-77
2021/09/09 00:39:13;;;;;;;11.80;8.00;;;;;;;14.55;100.00;100518.28;5201736;28;20075;-78
2021/09/09 00:41:43;;;;;;;11.07;7.38;;;;;;;14.24;100.00;100521.66;5201440;28;20075;-77
2021/09/09 00:44:25;;;;;;;12.23;7.93;;;;;;;14.33;100.00;100515.06;5201172;28;20053;-77
2021/09/09 00:47:07;;;;;;;9.75;6.88;;;;;;;14.61;100.00;100518.81;5201186;28;20033;-77
2021/09/09 00:49:40;;;;;;;12.63;7.20;;;;;;;14.54;100.00;100508.69;5201225;28;20021;-77
2021/09/09 00:52:12;;;;;;;10.23;7.38;;;;;;;14.38;100.00;100515.66;5201617;28;20017;-77
2021/09/09 00:54:45;;;;;;;11.18;7.05;;;;;;;14.38;100.00;100513.03;5201478;28;20017;-77
2021/09/09 00:57:17;;;;;;;10.32;6.93;;;;;;;14.16;100.00;100510.69;5200810;28;20025;-77
2021/09/09 00:59:48;;;;;;;10.93;7.57;;;;;;;14.02;100.00;100507.88;5201233;28;20040;-77
2021/09/09 01:02:18;;;;;;;12.15;7.85;;;;;;;13.88;100.00;100514.75;5200990;28;20018;-77
2021/09/09 01:04:49;;;;;;;12.60;7.88;;;;;;;13.94;100.00;100504.75;5201155;28;20037;-77
2021/09/09 01:07:19;;;;;;;11.13;7.53;;;;;;;14.03;100.00;100511.34;5200905;28;20029;-77
2021/09/09 01:09:51;;;;;;;12.68;7.95;;;;;;;13.97;100.00;100506.41;5201968;28;20048;-77
2021/09/09 01:12:21;;;;;;;11.20;7.53;;;;;;;13.71;100.00;100501.63;5201355;28;20033;-77
2021/09/09 01:14:52;;;;;;;11.05;7.50;;;;;;;13.55;100.00;100508.53;5201287;28;20025;-77
2021/09/09 01:17:22;;;;;;;11.45;7.40;;;;;;;13.65;100.00;100515.03;5183235;28;20387;-77
2021/09/09 01:19:52;;;;;;;13.52;7.93;;;;;;;13.64;100.00;100516.81;5200503;28;20033;-77
2021/09/09 01:22:23;;;;;;;10.85;7.95;;;;;;;13.72;100.00;100511.19;5200875;28;20021;-77
2021/09/09 01:24:53;;;;;;;11.02;7.57;;;;;;;13.59;100.00;100510.09;5200856;28;20021;-77
2021/09/09 01:27:23;;;;;;;11.73;7.97;;;;;;;13.67;100.00;100505.28;5200878;28;20048;-77
2021/09/09 01:29:54;;;;;;;11.85;8.13;;;;;;;13.65;100.00;100504.53;5200603;28;20108;-77
2021/09/09 01:32:24;;;;;;;10.50;7.93;;;;;;;13.75;100.00;100505.78;5199841;28;20390;-77
2021/09/09 01:34:54;;;;;;;13.45;7.82;;;;;;;13.54;100.00;100498.97;5204241;28;20036;-77
2021/09/09 01:37:25;;;;;;;9.85;7.45;;;;;;;13.53;100.00;100502.47;5205530;28;20479;-77
2021/09/09 01:39:55;;;;;;;14.77;8.73;;;;;;;13.53;100.00;100505.97;5204271;28;20662;-77
2021/09/09 01:42:26;;;;;;;13.40;7.90;;;;;;;13.56;100.00;100504.97;5205273;28;20028;-77
2021/09/09 01:44:56;;;;;;;11.43;7.70;;;;;;;13.57;100.00;100507.50;5204575;28;20033;-77
2021/09/09 01:47:26;;;;;;;12.45;8.32;;;;;;;13.60;100.00;100498.66;5204451;28;20049;-77
2021/09/09 01:49:59;;;;;;;10.82;7.68;;;;;;;13.48;100.00;100501.88;5204720;28;20026;-77
2021/09/09 01:52:29;;;;;;;12.75;8.10;;;;;;;13.52;100.00;100508.66;5204713;28;20025;-77
2021/09/09 01:55:00;;;;;;;12.95;8.35;;;;;;;13.54;100.00;100502.41;5205131;28;20052;-77
2021/09/09 01:57:30;;;;;;;12.93;8.70;;;;;;;13.63;100.00;100501.13;5204710;28;20029;-77
2021/09/09 02:00:04;;;;;;;11.93;8.05;;;;;;;13.67;100.00;100506.16;5204587;28;20030;-77
2021/09/09 02:02:34;;;;;;;13.13;8.00;;;;;;;13.65;100.00;100500.13;5204646;28;20021;-77
2021/09/09 02:05:05;;;;;;;12.52;7.63;;;;;;;13.58;100.00;100497.88;5204575;28;20052;-77
2021/09/09 02:07:35;;;;;;;13.25;7.82;;;;;;;13.55;100.00;100498.03;5204661;28;20436;-77
2021/09/09 02:10:08;;;;;;;14.50;8.20;;;;;;;13.51;100.00;100496.47;5204184;28;20200;-77
2021/09/09 02:12:38;;;;;;;12.30;8.43;;;;;;;13.63;100.00;100493.25;5204723;28;20025;-77
2021/09/09 02:15:09;;;;;;;11.65;8.25;;;;;;;13.52;100.00;100495.53;5204116;28;20537;-77
2021/09/09 02:17:39;;;;;;;13.43;8.82;;;;;;;13.66;100.00;100500.97;5204153;28;20029;-77
2021/09/09 02:20:10;;;;;;;16.25;8.57;;;;;;;13.47;100.00;100489.66;5204087;28;20510;-77
2021/09/09 02:22:40;;;;;;;12.60;8.23;;;;;;;13.46;100.00;100487.97;5204001;28;20033;-77
2021/09/09 02:25:11;;;;;;;14.77;8.07;;;;;;;13.51;100.00;100488.59;5204768;28;21143;-77
2021/09/09 02:27:41;;;;;;;12.95;8.60;;;;;;;13.38;100.00;100484.88;5204213;28;20029;-77
2021/09/09 02:30:12;;;;;;;12.10;8.68;;;;;;;13.47;100.00;100476.53;5204283;28;20040;-77
2021/09/09 02:32:42;;;;;;;13.38;8.95;;;;;;;13.53;100.00;100476.22;5204222;28;20433;-77
2021/09/09 02:35:12;;;;;;;12.80;9.13;;;;;;;13.59;100.00;100483.81;5203860;28;20059;-77
2021/09/09 02:37:43;;;;;;;13.32;8.05;;;;;;;13.49;100.00;100477.31;5204356;28;20037;-77
2021/09/09 02:40:14;;;;;;;11.65;7.88;;;;;;;13.52;100.00;100477.16;5203777;28;20128;-77
2021/09/09 02:42:45;;;;;;;12.50;8.73;;;;;;;13.55;100.00;100477.03;5204314;28;20025;-78
2021/09/09 02:45:16;;;;;;;12.43;7.70;;;;;;;13.57;100.00;100475.16;5200878;28;20107;-78
2021/09/09 02:47:46;;;;;;;12.18;8.07;;;;;;;13.61;100.00;100471.47;5203921;28;20044;-78
2021/09/09 02:50:17;;;;;;;13.88;8.80;;;;;;;13.69;100.00;100472.78;5203669;28;20082;-78
2021/09/09 02:52:47;;;;;;;18.98;11.05;;;;;;;13.46;100.00;100467.81;5203871;28;20087;-78
2021/09/09 02:55:17;;;;;;;16.58;10.40;;;;;;;13.42;100.00;100470.66;5203619;28;20561;-78
2021/09/09 02:57:48;;;;;;;15.57;10.57;;;;;;;13.46;100.00;100473.06;5203420;28;20025;-78
2021/09/09 03:00:18;;;;;;;15.82;10.13;;;;;;;13.53;100.00;100471.84;5185269;28;20040;-78
2021/09/09 03:02:48;;;;;;;15.50;9.95;;;;;;;13.62;100.00;100466.16;5203332;28;20029;-78
2021/09/09 03:05:19;;;;;;;14.20;9.73;;;;;;;13.49;100.00;100462.41;5203543;28;20442;-78
2021/09/09 03:07:49;;;;;;;15.07;9.95;;;;;;;13.48;100.00;100457.22;5203663;28;20128;-78
2021/09/09 03:10:19;;;;;;;15.75;9.15;;;;;;;13.54;100.00;100452.53;5203598;28;20021;-78
2021/09/09 03:12:50;;;;;;;13.43;8.52;;;;;;;13.55;100.00;100442.88;5203682;28;20026;-79
2021/09/09 03:15:20;;;;;;;13.50;8.65;;;;;;;13.60;100.00;100439.09;5203223;28;20044;-78
2021/09/09 03:17:51;;;;;;;13.80;9.65;;;;;;;13.56;100.00;100445.44;5203287;28;20116;-78
2021/09/09 03:20:21;;;;;;;12.88;8.70;;;;;;;13.59;100.00;100439.19;5203288;28;20041;-78
2021/09/09 03:22:51;;;;;;;13.85;9.57;;;;;;;13.61;100.00;100437.31;5203030;28;20029;-78
2021/09/09 03:25:21;;;;;;;13.85;9.85;;;;;;;13.54;100.00;100435.94;5203228;28;20557;-78
2021/09/09 03:27:52;;;;;;;16.67;9.98;;;;;;;13.27;100.00;100432.03;5203575;28;20041;-79
2021/09/09 03:30:22;;;;;;;15.80;9.70;;;;;;;13.19;100.00;100428.91;5202788;28;20434;-78
2021/09/09 03:32:52;;;;;;;15.60;10.15;;;;;;;13.10;100.00;100432.84;5203479;28;20025;-78
2021/09/09 03:35:23;;;;;;;14.88;9.70;;;;;;;13.01;100.00;100435.06;5201684;28;20467;-79
2021/09/09 03:37:53;;;;;;;14.48;10.07;;;;;;;13.03;100.00;100430.59;5203351;28;20497;-78
2021/09/09 03:40:23;;;;;;;15.68;10.07;;;;;;;13.02;100.00;100423.63;5203265;28;20025;-78
2021/09/09 03:42:53;;;;;;;18.65;8.98;;;;;;;13.15;100.00;100424.75;5203020;28;20186;-78
2021/09/09 03:45:24;;;;;;;16.30;10.02;;;;;;;13.19;100.00;100421.03;5202324;28;20029;-78
2021/09/09 03:47:57;;;;;;;15.88;9.43;;;;;;;13.13;100.00;100423.97;5201822;28;20033;-78
2021/09/09 03:50:27;;;;;;;16.92;11.00;;;;;;;13.03;100.00;100422.75;5184320;28;20037;-78
2021/09/09 03:52:57;;;;;;;16.40;10.15;;;;;;;13.07;100.00;100421.66;5202117;28;20030;-78
2021/09/09 03:55:28;;;;;;;14.40;9.80;;;;;;;13.16;100.00;100418.56;5202392;28;20499;-78
2021/09/09 03:57:58;;;;;;;17.17;10.75;;;;;;;13.20;100.00;100422.78;5184732;28;20031;-79
2021/09/09 04:00:28;;;;;;;16.38;11.05;;;;;;;13.15;100.00;100406.38;5201305;28;20475;-78
2021/09/09 04:02:59;;;;;;;16.65;10.35;;;;;;;13.23;100.00;100412.94;5201442;28;20079;-78
2021/09/09 04:05:32;;;;;;;15.80;10.65;;;;;;;13.23;100.00;100409.50;5201621;28;20026;-79
2021/09/09 04:08:03;;;;;;;17.83;10.90;;;;;;;13.16;100.00;100411.56;5202437;28;20044;-79
2021/09/09 04:10:34;;;;;;;18.17;11.32;;;;;;;13.22;100.00;100415.66;5201694;28;20429;-79
2021/09/09 04:13:04;;;;;;;16.27;10.77;;;;;;;13.20;100.00;100420.16;5200331;28;20032;-78
2021/09/09 04:15:35;;;;;;;16.27;10.25;;;;;;;13.08;100.00;100412.88;5201605;28;20470;-79
2021/09/09 04:18:05;;;;;;;16.00;10.25;;;;;;;13.02;100.00;100405.25;5202283;28;20040;-78
2021/09/09 04:20:36;;;;;;;14.25;10.05;;;;;;;13.04;100.00;100412.16;5201233;28;20033;-79
2021/09/09 04:23:06;;;;;;;17.10;10.10;;;;;;;13.21;100.00;100403.47;5201490;28;20083;-79
2021/09/09 04:25:36;;;;;;;17.98;11.32;;;;;;;13.20;100.00;100407.03;5183674;28;20509;-78
2021/09/09 04:28:06;;;;;;;18.02;12.05;;;;;;;13.13;100.00;100400.34;5201737;28;20030;-79
2021/09/09 04:30:37;;;;;;;22.10;13.02;;;;;;;13.23;100.00;100401.63;5201400;28;20057;-79
2021/09/09 04:33:07;;;;;;;20.13;12.65;;;;;;;13.16;100.00;100394.97;5201614;28;20029;-78
2021/09/09 04:35:38;;;;;;;24.90;12.55;;;;;;;13.25;100.00;100400.59;5201659;28;20061;-79
2021/09/09 04:38:08;;;;;;;19.13;13.38;;;;;;;13.34;100.00;100394.06;5201245;28;20091;-78
2021/09/09 04:40:38;;;;;;;24.02;14.45;;;;;;;13.38;100.00;100396.44;5216442;22;20133;-80
2021/09/09 04:43:09;;;;;;;22.25;13.85;;;;;;;13.23;100.00;100412.13;5188297;28;20041;-80
2021/09/09 04:45:39;;;;;;;22.65;14.15;;;;;;;13.19;100.00;100405.31;5187581;28;20471;-80
2021/09/09 04:48:10;;;;;;;21.23;13.68;;;;;;;13.16;100.00;100406.31;5206122;28;20052;-80
2021/09/09 04:50:40;;;;;;;22.45;14.45;;;;;;;13.31;100.00;100409.97;5205417;28;20500;-80
2021/09/09 04:53:10;;;;;;;25.92;15.07;;;;;;;13.25;100.00;100405.84;5187663;28;20021;-80
2021/09/09 04:55:40;;;;;;;24.90;15.57;;;;;;;13.25;100.00;100399.78;5205722;28;20029;-80
2021/09/09 04:58:11;;;;;;;21.63;15.02;;;;;;;13.39;100.00;100397.31;5187268;28;20064;-80
2021/09/09 05:00:41;;;;;;;24.65;15.25;;;;;;;13.34;100.00;100409.78;5205401;28;20033;-80
2021/09/09 05:03:11;;;;;;;25.80;15.90;;;;;;;13.32;100.00;100398.53;5205491;28;20215;-80
2021/09/09 05:05:42;;;;;;;24.05;16.02;;;;;;;13.47;100.00;100397.78;5205880;28;20279;-80
2021/09/09 05:08:12;;;;;;;24.98;15.32;;;;;;;13.53;100.00;100394.81;5188342;28;20112;-80
2021/09/09 05:10:42;;;;;;;26.73;16.30;;;;;;;13.49;100.00;100390.66;5205966;28;20033;-80
2021/09/09 05:13:13;;;;;;;22.60;14.07;;;;;;;13.48;100.00;100391.59;5187880;28;20017;-80
2021/09/09 05:15:43;;;;;;;22.27;14.68;;;;;;;13.30;100.00;100376.75;5187854;28;20532;-80
2021/09/09 05:18:13;;;;;;;28.70;15.43;;;;;;;13.22;100.00;100378.94;5188556;28;20072;-80
2021/09/09 05:20:44;;;;;;;29.95;16.73;;;;;;;13.40;100.00;100381.47;5205403;28;20028;-80
2021/09/09 05:23:15;;;;;;;27.40;16.58;;;;;;;13.49;100.00;100381.03;5205384;28;20026;-80
2021/09/09 05:25:46;;;;;;;26.85;16.25;;;;;;;13.71;100.00;100380.78;5201351;28;20036;-80
2021/09/09 05:28:16;;;;;;;27.48;16.17;;;;;;;13.77;100.00;100383.09;5205872;28;20522;-80
2021/09/09 05:30:46;;;;;;;22.92;14.60;;;;;;;13.87;100.00;100376.41;5187282;28;20449;-79
2021/09/09 05:33:17;;;;;;;24.35;15.80;;;;;;;13.79;100.00;100383.84;5204257;28;20017;-80
2021/09/09 05:35:47;;;;;;;24.63;16.42;;;;;;;13.80;100.00;100382.94;5186886;28;20459;-80
2021/09/09 05:38:17;;;;;;;25.15;15.68;;;;;;;13.78;100.00;100392.66;5204847;28;20307;-80
2021/09/09 05:40:50;;;;;;;27.33;15.63;;;;;;;14.00;100.00;100380.97;5204889;28;20465;-80
2021/09/09 05:43:20;;;;;;;23.88;15.07;;;;;;;14.21;100.00;100379.00;5205062;28;20026;-80
2021/09/09 05:45:51;;;;;;;26.45;15.82;;;;;;;14.21;100.00;100379.88;5206422;28;20081;-80
2021/09/09 05:48:21;;;;;;;25.23;14.98;;;;;;;14.37;100.00;100377.25;5188660;28;20429;-80
2021/09/09 05:50:51;;;;;;;25.38;15.45;;;;;;;14.27;100.00;100381.31;5205539;28;20032;-80
2021/09/09 05:53:21;;;;;;;23.23;15.30;;;;;;;14.31;100.00;100380.22;5205887;28;20026;-80
2021/09/09 05:55:52;;;;;;;23.57;14.93;;;;;;;14.34;100.00;100380.03;5205465;28;20303;-80
2021/09/09 05:58:22;;;;;;;22.25;15.68;;;;;;;14.51;100.00;100383.47;5187932;28;20284;-79
2021/09/09 06:00:53;;;;;;;25.67;14.55;;;;;;;14.49;100.00;100379.22;5190876;28;20032;-79
2021/09/09 06:03:26;;;;;;;23.98;16.15;;;;;;;14.58;100.00;100376.94;5188546;28;20034;-79
2021/09/09 06:06:03;;;;;;;23.05;14.73;;;;;;;14.80;100.00;100373.97;5188847;28;20122;-79
2021/09/09 06:08:37;;;;;;;20.23;13.75;;;;;;;14.97;100.00;100375.56;5205953;28;20104;-79
2021/09/09 06:11:07;;;;;;;23.58;14.68;;;;;;;15.12;100.00;100374.69;5204890;28;20033;-79
2021/09/09 06:13:37;;;;;;;22.17;14.70;;;;;;;15.29;100.00;100366.72;5188743;28;20116;-79
2021/09/09 06:16:08;;;;;;;25.35;15.10;;;;;;;15.26;100.00;100361.59;5206389;28;20284;-80
2021/09/09 06:18:38;;;;;;;21.13;13.88;;;;;;;15.41;100.00;100362.50;5206150;28;20029;-80
2021/09/09 06:21:08;;;;;;;20.27;14.38;;;;;;;15.36;100.00;100359.31;5188406;28;20041;-80
2021/09/09 06:23:38;;;;;;;22.13;14.40;;;;;;;15.62;100.00;100367.38;5192166;28;20026;-79
2021/09/09 06:26:09;;;;;;;22.35;15.20;;;;;;;15.65;100.00;100361.91;5190845;28;20426;-80
2021/09/09 06:28:39;;;;;;;22.05;14.65;;;;;;;15.86;100.00;100360.63;5192934;28;20025;-80
2021/09/09 06:31:09;;;;;;;22.40;13.48;;;;;;;16.00;100.00;100355.38;5190397;28;20027;-80
2021/09/09 06:33:40;;;;;;;20.02;13.43;;;;;;;16.18;100.00;100361.31;5204604;28;20025;-79
2021/09/09 06:36:10;;;;;;;19.52;13.02;;;;;;;16.18;100.00;100350.75;5192099;28;20033;-79
2021/09/09 06:38:40;;;;;;;19.48;13.60;;;;;;;16.30;100.00;100356.13;5209711;28;21364;-80
2021/09/09 06:41:11;;;;;;;19.77;13.13;;;;;;;16.40;100.00;100346.69;5189144;28;20030;-79
2021/09/09 06:43:41;;;;;;;21.25;13.80;;;;;;;16.43;100.00;100351.81;5208970;28;20236;-79
2021/09/09 06:46:12;;;;;;;21.20;13.32;;;;;;;16.55;100.00;100343.09;5205163;28;20033;-79
2021/09/09 06:48:42;;;;;;;22.88;13.63;;;;;;;16.62;100.00;100347.06;5191725;28;20082;-79
2021/09/09 06:51:13;;;;;;;19.92;13.70;;;;;;;16.79;100.00;100334.47;5208790;28;20063;-80
2021/09/09 06:53:43;;;;;;;19.20;13.07;;;;;;;16.93;100.00;100341.47;5208779;28;20021;-80
2021/09/09 06:56:14;;;;;;;21.70;12.68;;;;;;;17.72;99.74;100344.03;5191526;28;20037;-80
2021/09/09 06:58:44;;;;;;;16.42;11.73;;;;;;;19.92;88.63;100332.94;5191822;28;20029;-80
2021/09/09 07:01:14;;;;;;;17.00;11.80;;;;;;;21.40;79.59;100330.56;5190162;28;20490;-79
2021/09/09 07:03:45;;;;;;;16.63;10.48;;;;;;;22.61;74.17;100329.72;5206052;28;20160;-78
2021/09/09 07:06:15;;;;;;;13.80;8.18;;;;;;;24.41;72.60;100327.75;5191057;28;20273;-79
2021/09/09 07:08:46;;;;;;;11.43;8.27;;;;;;;24.74;66.87;100338.75;5209153;28;20036;-79
2021/09/09 07:11:16;;;;;;;12.90;8.83;;;;;;;24.60;67.83;100338.41;5191279;28;20026;-79
2021/09/09 07:13:46;;;;;;;13.67;9.17;;;;;;;24.62;68.71;100328.41;5190750;28;20053;-79
2021/09/09 07:16:16;;;;;;;11.30;8.60;;;;;;;25.83;66.77;100321.38;5191008;28;20537;-79
2021/09/09 07:18:47;;;;;;;10.40;8.23;;;;;;;25.18;66.66;100323.66;5207169;28;20268;-80
2021/09/09 07:21:17;;;;;;;11.63;8.23;;;;;;;27.94;60.20;100317.16;5190847;28;20276;-79
2021/09/09 07:23:48;;;;;;;11.03;8.23;;;;;;;27.65;62.28;100319.50;5190589;28;20291;-80
2021/09/09 07:26:18;;;;;;;12.50;8.88;;;;;;;25.55;66.10;100327.00;5191402;28;20431;-79
2021/09/09 07:28:48;;;;;;;11.47;8.90;;;;;;;25.54;67.22;100330.69;5190445;28;20034;-79
2021/09/09 07:31:18;;;;;;;9.90;6.73;;;;;;;26.70;64.32;100328.22;5189883;28;20308;-79
2021/09/09 07:33:49;;;;;;;10.82;7.93;;;;;;;26.49;64.38;100316.28;5207834;28;20729;-79
2021/09/09 07:36:19;;;;;;;13.70;8.73;;;;;;;25.45;66.96;100323.59;5189540;28;20040;-79
2021/09/09 07:38:49;;;;;;;13.90;8.30;;;;;;;26.42;64.29;100313.38;5208497;28;20256;-79
2021/09/09 07:41:20;;;;;;;8.83;6.87;;;;;;;27.62;62.78;100311.78;5189577;28;20037;-79
2021/09/09 07:43:50;;;;;;;10.60;8.02;;;;;;;26.99;63.61;100315.25;5190799;28;20025;-79
2021/09/09 07:46:20;;;;;;;7.47;5.90;;;;;;;27.39;63.24;100318.84;5194981;28;20036;-79
2021/09/09 07:48:51;;;;;;;10.63;7.35;;;;;;;29.31;58.43;100312.84;5191526;28;20103;-79
2021/09/09 07:51:22;;;;;;;8.83;5.73;;;;;;;29.66;57.72;100312.22;5208302;28;20442;-79
2021/09/09 07:53:53;;;;;;;10.50;7.45;;;;;;;29.68;56.93;100315.56;5204191;28;20028;-79
2021/09/09 07:56:23;;;;;;;8.55;6.10;;;;;;;28.18;61.34;100319.78;5190168;28;20025;-78
2021/09/09 07:58:54;;;;;;;8.00;6.22;;;;;;;29.78;57.14;100303.50;5189844;28;20446;-79
2021/09/09 08:01:24;;;;;;;9.60;7.23;;;;;;;29.03;58.25;100311.72;5207891;28;20029;-79
2021/09/09 08:03:54;;;;;;;9.25;7.13;;;;;;;29.15;57.53;100305.72;5191040;28;20021;-78
2021/09/09 08:06:25;;;;;;;7.33;6.10;;;;;;;29.78;56.36;100313.47;5189835;28;20123;-79
2021/09/09 08:08:55;;;;;;;8.73;6.60;;;;;;;30.54;55.98;100308.59;5208490;28;20308;-79
2021/09/09 08:11:25;;;;;;;9.60;7.70;;;;;;;29.21;58.37;100309.56;5190580;28;20055;-79
2021/09/09 08:13:55;;;;;;;7.97;5.97;;;;;;;29.93;57.43;100307.06;5207665;28;20317;-79
2021/09/09 08:16:26;;;;;;;9.33;6.80;;;;;;;29.82;57.27;100309.38;5190109;28;20172;-79
2021/09/09 08:18:56;;;;;;;9.47;6.13;;;;;;;29.59;58.06;100311.31;5189562;28;20326;-79
2021/09/09 08:21:26;;;;;;;10.00;7.65;;;;;;;29.27;59.13;100306.97;5205210;28;20628;-79
2021/09/09 08:23:57;;;;;;;8.55;6.30;;;;;;;31.81;54.13;100306.69;5205777;28;20368;-79
2021/09/09 08:26:27;;;;;;;7.80;6.03;;;;;;;31.05;55.17;100306.53;5189293;28;20021;-79
2021/09/09 08:28:57;;;;;;;7.00;5.37;;;;;;;31.54;53.71;100307.47;5189623;28;20611;-79
2021/09/09 08:31:28;;;;;;;11.80;5.87;;;;;;;30.04;56.91;100308.50;5188862;28;20029;-78
2021/09/09 08:33:58;;;;;;;9.30;5.33;;;;;;;30.26;54.99;100307.59;5206188;28;20026;-78
2021/09/09 08:36:28;;;;;;;9.07;4.65;;;;;;;31.52;52.25;100306.81;5206478;28;20276;-78
2021/09/09 08:38:59;;;;;;;6.37;4.07;;;;;;;29.94;53.68;100303.34;5207229;28;20017;-78
2021/09/09 08:41:30;;;;;;;5.43;4.20;;;;;;;30.43;51.72;100301.00;5188430;28;20109;-78
2021/09/09 08:44:00;;;;;;;5.32;4.20;;;;;;;30.66;51.42;100299.03;5204592;28;20598;-78
2021/09/09 08:46:31;;;;;;;9.68;4.45;;;;;;;31.11;51.21;100300.41;5206256;28;20120;-78
2021/09/09 08:49:01;;;;;;;6.43;4.00;;;;;;;31.25;51.32;100302.22;5206211;28;20025;-78
2021/09/09 08:51:31;;;;;;;7.03;4.53;;;;;;;31.68;52.16;100309.28;5187623;28;20272;-78
2021/09/09 08:54:02;;;;;;;6.22;4.30;;;;;;;31.00;53.19;100306.28;5205996;28;20029;-78
2021/09/09 08:56:32;;;;;;;6.38;4.32;;;;;;;30.86;52.96;100311.72;5187832;28;20029;-78
2021/09/09 08:59:03;;;;;;;6.90;4.87;;;;;;;29.78;55.24;100314.28;5188768;28;20029;-78
2021/09/09 09:01:33;;;;;;;6.00;4.10;;;;;;;31.65;52.17;100298.00;5187677;28;20391;-78
2021/09/09 09:04:06;;;;;;;7.63;4.23;;;;;;;32.54;50.33;100304.22;5187918;28;20034;-78
2021/09/09 09:06:37;;;;;;;5.07;4.30;;;;;;;31.55;51.04;100311.00;5206900;28;20279;-78
2021/09/09 09:09:10;;;;;;;5.93;4.47;;;;;;;30.47;52.33;100305.84;5206053;28;20025;-78
2021/09/09 09:11:43;;;;;;;7.20;4.43;;;;;;;31.57;50.33;100303.53;5188192;28;20048;-78
2021/09/09 09:14:18;;;;;;;6.28;4.53;;;;;;;31.28;52.51;100309.94;5206331;28;20247;-78
2021/09/09 09:16:51;;;;;;;5.90;4.47;;;;;;;31.59;51.23;100302.31;5205740;28;20033;-78
2021/09/09 09:19:23;;;;;;;6.13;4.40;;;;;;;31.45;49.86;100295.13;5205260;28;20041;-78
2021/09/09 09:22:09;;;;;;;6.15;4.35;;;;;;;30.49;52.21;100292.97;5204211;28;20029;-78
2021/09/09 09:24:49;;;;;;;7.45;4.65;;;;;;;29.16;56.80;100295.78;5184328;28;20502;-78
2021/09/09 09:27:21;;;;;;;7.03;4.70;;;;;;;28.70;55.54;100299.44;5184111;28;20030;-77
2021/09/09 09:30:06;;;;;;;5.53;4.30;;;;;;;27.79;58.46;100291.16;5202071;28;20025;-77
2021/09/09 09:32:49;;;;;;;7.32;4.28;;;;;;;27.48;59.42;100290.16;5200619;28;20017;-78
2021/09/09 09:35:21;;;;;;;6.82;5.45;;;;;;;27.55;60.32;100294.69;5204623;28;20513;-78
2021/09/09 09:38:05;;;;;;;6.25;4.68;;;;;;;27.44;61.34;100292.31;5204169;28;20510;-79
2021/09/09 09:40:42;;;;;;;7.25;4.75;;;;;;;27.37;61.08;100285.97;5186458;28;20060;-78
2021/09/09 09:43:16;;;;;;;6.13;4.47;;;;;;;27.04;63.57;100286.06;5204230;28;20294;-78
2021/09/09 09:45:49;;;;;;;5.25;4.18;;;;;;;27.41;60.67;100281.91;5204455;28;20063;-78
2021/09/09 09:48:32;;;;;;;6.32;5.00;;;;;;;26.69;61.15;100289.00;5186637;28;20060;-78
2021/09/09 09:51:03;;;;;;;6.35;4.45;;;;;;;27.09;61.92;100286.41;5201144;28;20045;-80
2021/09/09 09:53:33;;;;;;;7.25;4.30;;;;;;;27.11;62.56;100281.75;5203979;28;20021;-80
2021/09/09 09:56:04;;;;;;;5.80;4.27;;;;;;;27.05;60.12;100285.91;5207581;28;20220;-78
2021/09/09 09:58:34;;;;;;;7.03;4.90;;;;;;;26.83;61.91;100280.31;5208866;28;20353;-78
2021/09/09 10:01:04;;;;;;;6.97;4.47;;;;;;;26.79;60.92;100278.97;5206931;28;20029;-78
2021/09/09 10:03:35;;;;;;;5.82;4.10;;;;;;;26.65;61.73;100271.56;5207333;28;20288;-78
2021/09/09 10:06:05;;;;;;;5.43;3.85;;;;;;;26.69;62.92;100266.72;5208377;28;20199;-78
2021/09/09 10:08:35;;;;;;;6.57;4.50;;;;;;;26.52;61.69;100260.47;5207818;28;20052;-78
2021/09/09 10:11:06;;;;;;;6.70;4.43;;;;;;;26.75;61.80;100262.38;5208254;28;20029;-78
2021/09/09 10:13:38;;;;;;;7.38;4.35;;;;;;;26.45;62.26;100258.56;5208032;28;20379;-78
2021/09/09 10:16:08;;;;;;;6.38;3.92;;;;;;;26.68;60.87;100252.47;5208805;28;20063;-78
2021/09/09 10:18:39;;;;;;;5.43;3.90;;;;;;;26.73;59.89;100254.66;5207662;28;20072;-78
2021/09/09 10:21:09;;;;;;;6.53;3.70;;;;;;;26.62;60.64;100249.59;5190562;28;20029;-78
2021/09/09 10:23:39;;;;;;;7.15;3.70;;;;;;;26.63;62.26;100252.13;5208966;28;20030;-78
2021/09/09 10:26:26;;;;;;;6.30;4.15;;;;;;;26.73;62.62;100246.63;5208819;28;20099;-79
2021/09/09 10:28:57;;;;;;;6.43;3.90;;;;;;;26.78;62.30;100245.13;5208967;28;20033;-78
2021/09/09 10:31:39;;;;;;;5.78;4.30;;;;;;;26.80;62.88;100243.94;5208561;28;20071;-78
2021/09/09 10:34:22;;;;;;;6.13;4.13;;;;;;;26.82;62.79;100236.59;5208138;28;20379;-78
2021/09/09 10:36:54;;;;;;;6.05;3.97;;;;;;;26.93;60.78;100232.75;5207377;28;20753;-78
2021/09/09 10:39:33;;;;;;;5.75;3.90;;;;;;;27.07;60.98;100232.91;5206900;28;20061;-78
2021/09/09 10:42:38;;;;;;;6.45;3.90;;;;;;;26.87;60.09;100228.88;5198300;23;20549;-77
2021/09/09 10:45:33;;;;;;;4.60;3.45;;;;;;;27.00;61.16;100226.53;5182156;28;20034;-78
2021/09/09 10:48:25;;;;;;;6.40;4.18;;;;;;;26.87;61.66;100228.88;5164880;28;20026;-81
2021/09/09 10:51:18;;;;;;;6.75;3.72;;;;;;;26.85;61.12;100230.88;5179805;28;20108;-79
2021/09/09 10:53:56;;;;;;;5.95;3.90;;;;;;;26.99;61.68;100232.06;5174924;28;20238;-80
2021/09/09 10:56:41;;;;;;;6.68;4.15;;;;;;;26.97;60.93;100218.78;5168090;28;20084;-81
2021/09/09 10:59:20;;;;;;;5.25;3.67;;;;;;;26.98;61.09;100222.34;5172912;28;20120;-80
2021/09/09 11:01:50;;;;;;;5.90;3.97;;;;;;;26.94;61.16;100224.50;5162281;28;20027;-78
2021/09/09 11:04:32;;;;;;;7.22;3.70;;;;;;;26.87;60.01;100222.66;5166908;28;20092;-78
2021/09/09 11:07:18;;;;;;;5.22;3.55;;;;;;;27.07;60.83;100224.03;5164810;28;20096;-77
2021/09/09 11:09:56;;;;;;;;;;;;;;;27.05;61.77;100224.19;5168486;28;20076;-78
2021/09/09 11:12:33;;;;;;;5.55;3.30;;;;;;;27.12;62.59;100211.78;5169458;28;19945;-77
2021/09/09 11:15:07;;;;;;;5.63;3.70;;;;;;;27.00;62.84;100210.44;5172433;28;20030;-80
2021/09/09 11:17:38;;;;;;;5.93;3.95;;;;;;;27.11;61.72;100214.66;5172456;28;20087;-78
2021/09/09 11:20:10;;;;;;;6.68;4.03;;;;;;;27.14;59.82;100214.31;5171645;28;20026;-78
2021/09/09 11:22:41;;;;;;;4.10;3.47;;;;;;;27.20;62.14;100214.50;5164225;28;20018;-78
2021/09/09 11:25:18;;;;;;;5.73;3.83;;;;;;;27.14;60.70;100208.94;5169964;28;20036;-77
2021/09/09 11:27:48;;;;;;;5.05;3.42;;;;;;;27.17;60.04;100204.09;5178984;28;20287;-81
2021/09/09 11:30:19;;;;;;;4.28;3.28;;;;;;;27.16;61.14;100205.09;5168102;28;20026;-79
2021/09/09 11:33:02;;;;;;;5.32;3.58;;;;;;;27.20;60.62;100201.06;5166763;28;20521;-79